Time;durP1;ratioP1;P1;durP2;ratioP2;P2;SDS_P1;SDS_P2;PMS_P1;PMS_P2;Temp;Humidity;BMP_temperature;BMP_pressure;BME280_temperature;BME280_humidity;BME280_pressure;Samples;Min_cycle;Max_cycle;Signal;HPM_P1;HPM_P2
2022/07/17 00:02:13;;;;;;;0.20;0.20;;;12.30;99.90;;;;;;5005869;28;20664;-82
2022/07/17 00:04:39;;;;;;;0.13;0.13;;;12.40;99.90;;;;;;5012013;28;22161;-81
2022/07/17 00:07:05;;;;;;;0.10;0.10;;;12.30;99.90;;;;;;5003308;28;20935;-81
2022/07/17 00:09:30;;;;;;;0.10;0.10;;;12.20;99.90;;;;;;5009467;28;20381;-81
2022/07/17 00:11:56;;;;;;;0.10;0.10;;;12.10;99.90;;;;;;4996052;28;20645;-81
2022/07/17 00:14:21;;;;;;;0.20;0.20;;;11.90;99.90;;;;;;5008867;28;20193;-81
2022/07/17 00:16:47;;;;;;;0.20;0.20;;;11.70;99.90;;;;;;4993547;28;20653;-81
2022/07/17 00:19:12;;;;;;;0.20;0.20;;;11.80;99.90;;;;;;5010977;28;20569;-81
2022/07/17 00:21:38;;;;;;;0.10;0.10;;;11.90;99.90;;;;;;5006157;28;20220;-81
2022/07/17 00:24:06;;;;;;;0.17;0.17;;;11.90;99.90;;;;;;5005846;28;20243;-82
2022/07/17 00:26:32;;;;;;;0.10;0.10;;;11.90;99.90;;;;;;5011028;28;20177;-82
2022/07/17 00:28:57;;;;;;;0.20;0.20;;;11.90;99.90;;;;;;5008088;28;20559;-81
2022/07/17 00:31:23;;;;;;;0.20;0.20;;;11.90;99.90;;;;;;5008310;28;20541;-82
2022/07/17 00:33:48;;;;;;;0.10;0.10;;;11.90;99.90;;;;;;4999547;28;20180;-81
2022/07/17 00:36:13;;;;;;;0.20;0.20;;;12.10;99.90;;;;;;5011390;28;20287;-81
2022/07/17 00:38:39;;;;;;;0.10;0.10;;;11.90;99.90;;;;;;4988415;28;20200;-81
2022/07/17 00:41:05;;;;;;;0.20;0.20;;;11.70;99.90;;;;;;4988481;28;20188;-82
2022/07/17 00:43:32;;;;;;;0.10;0.10;;;11.70;99.90;;;;;;5009876;28;20184;-81
2022/07/17 00:45:59;;;;;;;0.10;0.10;;;11.80;99.90;;;;;;5003518;28;20204;-81
2022/07/17 00:48:26;;;;;;;0.20;0.20;;;11.90;99.90;;;;;;5007538;28;20446;-81
2022/07/17 00:50:51;;;;;;;0.20;0.20;;;11.90;99.90;;;;;;5004234;28;20538;-81
2022/07/17 00:53:17;;;;;;;0.20;0.20;;;11.90;99.90;;;;;;4995569;28;20594;-81
2022/07/17 00:55:47;;;;;;;0.20;0.20;;;11.90;99.90;;;;;;5010858;28;20606;-81
2022/07/17 00:58:22;;;;;;;0.10;0.10;;;11.90;99.90;;;;;;5013656;28;20428;-81
2022/07/17 01:00:50;;;;;;;0.13;0.13;;;11.80;99.90;;;;;;5028655;28;20477;-81
2022/07/17 01:03:17;;;;;;;0.10;0.10;;;11.80;99.90;;;;;;5029962;28;20449;-81
2022/07/17 01:05:43;;;;;;;0.10;0.10;;;11.60;99.90;;;;;;5009116;28;20974;-81
2022/07/17 01:08:09;;;;;;;0.10;0.10;;;11.70;99.90;;;;;;5009132;28;20574;-81
2022/07/17 01:10:35;;;;;;;0.10;0.10;;;11.60;99.90;;;;;;5027721;28;20207;-81
2022/07/17 01:13:01;;;;;;;0.20;0.20;;;11.60;99.90;;;;;;5028535;28;20850;-81
2022/07/17 01:15:28;;;;;;;0.20;0.20;;;11.80;99.90;;;;;;5028251;28;20191;-81
2022/07/17 01:17:54;;;;;;;0.20;0.20;;;11.80;99.90;;;;;;5010131;28;20520;-81
2022/07/17 01:20:19;;;;;;;0.20;0.20;;;11.80;99.90;;;;;;5029624;28;20442;-81
2022/07/17 01:22:47;;;;;;;0.10;0.10;;;11.50;99.90;;;;;;5016755;28;20195;-82
2022/07/17 01:25:14;;;;;;;0.10;0.10;;;11.70;99.90;;;;;;5011805;28;20196;-82
2022/07/17 01:27:40;;;;;;;0.20;0.20;;;11.80;99.90;;;;;;5029313;28;20959;-81
2022/07/17 01:30:06;;;;;;;0.20;0.20;;;11.80;99.90;;;;;;5009296;28;20581;-82
2022/07/17 01:32:37;;;;;;;0.20;0.20;;;11.80;99.90;;;;;;5010648;28;20442;-81
2022/07/17 01:35:04;;;;;;;0.20;0.20;;;11.90;99.90;;;;;;5025760;28;20462;-81
2022/07/17 01:37:30;;;;;;;0.20;0.20;;;11.80;99.90;;;;;;5027788;28;20446;-82
2022/07/17 01:39:56;;;;;;;0.17;0.17;;;11.80;99.90;;;;;;5010919;28;20807;-81
2022/07/17 01:42:23;;;;;;;0.20;0.20;;;11.70;99.90;;;;;;5028943;28;20438;-82
2022/07/17 01:44:49;;;;;;;0.20;0.20;;;11.70;99.90;;;;;;5025532;28;20454;-81
2022/07/17 01:47:15;;;;;;;0.10;0.10;;;11.90;99.90;;;;;;5028253;28;20472;-81
2022/07/17 01:49:50;;;;;;;0.20;0.20;;;12.00;99.90;;;;;;5024811;28;20514;-82
2022/07/17 01:52:16;;;;;;;0.20;0.20;;;11.80;99.90;;;;;;5024357;28;20336;-81
2022/07/17 01:54:42;;;;;;;0.20;0.20;;;11.70;99.90;;;;;;5020333;28;20545;-81
2022/07/17 01:57:09;;;;;;;0.10;0.10;;;11.70;99.90;;;;;;5027757;28;20489;-82
2022/07/17 01:59:35;;;;;;;0.10;0.10;;;11.70;99.90;;;;;;5009572;28;20454;-81
2022/07/17 02:02:00;;;;;;;0.20;0.20;;;11.80;99.90;;;;;;5005124;28;20438;-81
2022/07/17 02:04:26;;;;;;;0.20;0.20;;;11.80;99.90;;;;;;5010750;28;20454;-81
2022/07/17 02:06:55;;;;;;;0.20;0.20;;;11.80;99.90;;;;;;5026385;28;20238;-81
2022/07/17 02:09:22;;;;;;;0.20;0.20;;;11.60;99.90;;;;;;5025554;28;20226;-81
2022/07/17 02:11:47;;;;;;;0.20;0.20;;;11.80;99.90;;;;;;5026744;28;20450;-81
2022/07/17 02:14:13;;;;;;;0.20;0.20;;;11.80;99.90;;;;;;5009354;28;20825;-81
2022/07/17 02:16:38;;;;;;;0.20;0.20;;;11.70;99.90;;;;;;5027306;28;20183;-82
2022/07/17 02:19:04;;;;;;;0.20;0.20;;;11.70;99.90;;;;;;5003440;28;20191;-81
2022/07/17 02:21:30;;;;;;;0.20;0.20;;;11.80;99.90;;;;;;5011213;28;20183;-82
2022/07/17 02:23:55;;;;;;;0.20;0.20;;;11.80;99.90;;;;;;5022689;28;20664;-81
2022/07/17 02:26:21;;;;;;;0.20;0.20;;;11.80;99.90;;;;;;5022009;28;20191;-81
2022/07/17 02:28:46;;;;;;;0.10;0.10;;;11.80;99.90;;;;;;5011762;28;20206;-81
2022/07/17 02:31:12;;;;;;;0.20;0.20;;;11.80;99.90;;;;;;5025429;28;20575;-82
2022/07/17 02:33:37;;;;;;;0.10;0.10;;;11.90;99.90;;;;;;5024090;28;20183;-81
2022/07/17 02:36:03;;;;;;;0.20;0.20;;;11.90;99.90;;;;;;5029938;28;20285;-81
2022/07/17 02:38:29;;;;;;;0.20;0.20;;;11.80;99.90;;;;;;5009098;28;20184;-82
2022/07/17 02:40:54;;;;;;;0.17;0.17;;;12.00;99.90;;;;;;5026939;28;20196;-81
2022/07/17 02:43:20;;;;;;;0.20;0.20;;;11.90;99.90;;;;;;5025873;28;20284;-81
2022/07/17 02:45:45;;;;;;;0.20;0.20;;;11.90;99.90;;;;;;5024762;28;20695;-81
2022/07/17 02:48:11;;;;;;;0.20;0.20;;;12.00;99.90;;;;;;5008814;28;20187;-81
2022/07/17 02:50:36;;;;;;;0.10;0.10;;;12.10;99.90;;;;;;5008861;28;20699;-82
2022/07/17 02:53:02;;;;;;;0.10;0.10;;;12.20;99.90;;;;;;5009507;28;20617;-81
2022/07/17 02:55:27;;;;;;;0.10;0.10;;;12.10;99.90;;;;;;5011713;28;20243;-82
2022/07/17 02:57:53;;;;;;;0.20;0.20;;;12.00;99.90;;;;;;5026287;28;20243;-82
2022/07/17 03:00:20;;;;;;;0.20;0.20;;;12.00;99.90;;;;;;5009216;28;20360;-81
2022/07/17 03:02:47;;;;;;;0.20;0.20;;;12.00;99.90;;;;;;5028568;28;20582;-81
2022/07/17 03:05:15;;;;;;;0.20;0.20;;;11.80;99.90;;;;;;5023377;28;20446;-81
2022/07/17 03:07:40;;;;;;;0.10;0.10;;;11.90;99.90;;;;;;5027177;28;20819;-82
2022/07/17 03:10:07;;;;;;;0.20;0.20;;;11.90;99.90;;;;;;5008088;28;20486;-82
2022/07/17 03:12:33;;;;;;;0.20;0.20;;;11.90;99.90;;;;;;5007108;28;20265;-81
2022/07/17 03:14:59;;;;;;;0.10;0.10;;;11.90;99.90;;;;;;5029164;28;20931;-82
2022/07/17 03:17:24;;;;;;;0.10;0.10;;;11.90;99.90;;;;;;5025637;28;20866;-82
2022/07/17 03:19:51;;;;;;;0.10;0.10;;;11.80;99.90;;;;;;5029181;28;20685;-82
2022/07/17 03:22:16;;;;;;;0.20;0.20;;;11.90;99.90;;;;;;5021371;28;20644;-82
2022/07/17 03:24:42;;;;;;;0.20;0.20;;;11.90;99.90;;;;;;5027797;28;20457;-82
2022/07/17 03:27:07;;;;;;;0.20;0.20;;;11.90;99.90;;;;;;5027069;28;20191;-81
2022/07/17 03:29:33;;;;;;;0.20;0.20;;;11.80;99.90;;;;;;5025830;28;20385;-82
2022/07/17 03:31:59;;;;;;;0.20;0.20;;;11.90;99.90;;;;;;5024810;28;20672;-81
2022/07/17 03:34:25;;;;;;;0.20;0.20;;;11.90;99.90;;;;;;5025816;28;20241;-82
2022/07/17 03:36:50;;;;;;;0.10;0.10;;;11.90;99.90;;;;;;5008729;28;20184;-81
2022/07/17 03:39:16;;;;;;;0.10;0.10;;;12.00;99.90;;;;;;5021771;28;20454;-82
2022/07/17 03:41:42;;;;;;;0.10;0.10;;;12.00;99.90;;;;;;5024483;28;20180;-81
2022/07/17 03:44:07;;;;;;;0.20;0.20;;;11.90;99.90;;;;;;5022578;28;20242;-81
2022/07/17 03:46:33;;;;;;;0.10;0.10;;;11.90;99.90;;;;;;5023704;28;20187;-81
2022/07/17 03:48:58;;;;;;;0.20;0.20;;;11.90;99.90;;;;;;5023859;28;20299;-81
2022/07/17 03:51:24;;;;;;;0.10;0.10;;;11.90;99.90;;;;;;5025874;28;20191;-82
2022/07/17 03:53:50;;;;;;;0.10;0.10;;;11.90;99.90;;;;;;5005269;28;20183;-81
2022/07/17 03:56:16;;;;;;;0.10;0.10;;;12.00;99.90;;;;;;5025355;28;20446;-82
2022/07/17 03:58:41;;;;;;;0.10;0.10;;;12.00;99.90;;;;;;5027232;28;20311;-81
2022/07/17 04:01:07;;;;;;;0.20;0.20;;;12.20;99.90;;;;;;5025674;28;20218;-83
2022/07/17 04:03:32;;;;;;;0.10;0.10;;;12.20;99.90;;;;;;5026853;28;20191;-81
2022/07/17 04:05:58;;;;;;;0.20;0.20;;;12.20;99.90;;;;;;5028826;28;20192;-81
2022/07/17 04:08:23;;;;;;;0.20;0.20;;;12.20;99.90;;;;;;5020366;28;20657;-82
2022/07/17 04:10:49;;;;;;;0.10;0.10;;;12.30;99.90;;;;;;5021532;28;20469;-81
2022/07/17 04:13:15;;;;;;;0.10;0.10;;;12.30;99.90;;;;;;5025503;28;20195;-81
2022/07/17 04:15:52;;;;;;;0.10;0.10;;;12.30;99.90;;;;;;5024247;28;20703;-81
2022/07/17 04:18:22;;;;;;;0.10;0.10;;;12.20;99.90;;;;;;5025363;28;20445;-82
2022/07/17 04:20:48;;;;;;;0.10;0.10;;;12.20;99.90;;;;;;5026371;28;21096;-82
2022/07/17 04:23:14;;;;;;;0.20;0.20;;;12.20;99.90;;;;;;5027484;28;20537;-81
2022/07/17 04:25:41;;;;;;;0.20;0.20;;;12.30;99.90;;;;;;5023751;28;20560;-81
2022/07/17 04:28:06;;;;;;;0.10;0.10;;;12.40;99.90;;;;;;5023358;28;20465;-81
2022/07/17 04:30:32;;;;;;;0.20;0.20;;;12.30;99.90;;;;;;5029254;28;20516;-82
2022/07/17 04:32:58;;;;;;;0.10;0.10;;;12.40;99.90;;;;;;5031999;28;20211;-81
2022/07/17 04:35:23;;;;;;;0.20;0.20;;;12.30;99.90;;;;;;5015412;28;20968;-81
2022/07/17 04:37:49;;;;;;;0.10;0.10;;;12.30;99.90;;;;;;5039251;28;20192;-82
2022/07/17 04:40:15;;;;;;;0.10;0.10;;;12.30;99.90;;;;;;5017794;28;20188;-82
2022/07/17 04:42:40;;;;;;;0.10;0.10;;;12.40;99.90;;;;;;5036841;28;20198;-82
2022/07/17 04:45:06;;;;;;;0.10;0.10;;;12.40;99.90;;;;;;5025486;28;20242;-82
2022/07/17 04:47:34;;;;;;;0.10;0.10;;;12.40;99.90;;;;;;5027493;28;20191;-82
2022/07/17 04:49:59;;;;;;;0.10;0.10;;;12.50;99.90;;;;;;5029903;28;20485;-82
2022/07/17 04:52:25;;;;;;;0.10;0.10;;;12.50;99.90;;;;;;5012903;28;20484;-81
2022/07/17 04:54:50;;;;;;;0.10;0.10;;;12.60;99.90;;;;;;5022854;28;20195;-82
2022/07/17 04:57:16;;;;;;;0.10;0.10;;;12.60;99.90;;;;;;5011185;28;20230;-81
2022/07/17 04:59:41;;;;;;;0.20;0.20;;;12.70;99.90;;;;;;4977754;28;20193;-82
2022/07/17 05:02:07;;;;;;;0.20;0.20;;;12.70;99.90;;;;;;4997252;28;20192;-81
2022/07/17 05:04:33;;;;;;;0.10;0.10;;;12.70;99.90;;;;;;4979271;28;20193;-82
2022/07/17 05:06:58;;;;;;;0.10;0.10;;;12.80;99.90;;;;;;4980201;28;20185;-82
2022/07/17 05:09:24;;;;;;;0.10;0.10;;;12.80;99.90;;;;;;4996167;28;20318;-83
2022/07/17 05:11:49;;;;;;;0.10;0.10;;;12.80;99.90;;;;;;5000823;28;20267;-81
2022/07/17 05:14:15;;;;;;;0.10;0.10;;;12.80;99.90;;;;;;5011216;28;20184;-81
2022/07/17 05:16:40;;;;;;;0.10;0.10;;;12.90;99.90;;;;;;4982925;28;20193;-82
2022/07/17 05:19:06;;;;;;;0.10;0.10;;;12.90;99.90;;;;;;4997226;28;20188;-82
2022/07/17 05:21:31;;;;;;;0.10;0.10;;;12.90;99.90;;;;;;5008655;28;20671;-82
2022/07/17 05:23:57;;;;;;;0.10;0.10;;;12.90;99.90;;;;;;4982335;28;20528;-82
2022/07/17 05:26:23;;;;;;;0.10;0.10;;;12.90;99.90;;;;;;4999689;28;20223;-82
2022/07/17 05:28:49;;;;;;;0.10;0.10;;;13.00;99.90;;;;;;5004028;28;20569;-82
2022/07/17 05:31:15;;;;;;;0.10;0.10;;;13.00;99.90;;;;;;4993978;28;20539;-82
2022/07/17 05:33:40;;;;;;;0.10;0.10;;;13.10;99.90;;;;;;5009125;28;20609;-82
2022/07/17 05:36:06;;;;;;;0.10;0.10;;;13.10;99.90;;;;;;5003825;28;20246;-82
2022/07/17 05:38:31;;;;;;;0.10;0.10;;;13.10;99.90;;;;;;5005579;28;20180;-81
2022/07/17 05:40:57;;;;;;;0.10;0.10;;;13.10;99.90;;;;;;4977300;28;20675;-82
2022/07/17 05:43:23;;;;;;;0.10;0.10;;;13.30;99.90;;;;;;5000789;28;20188;-81
2022/07/17 05:45:48;;;;;;;0.10;0.10;;;13.30;99.90;;;;;;5005448;28;20318;-81
2022/07/17 05:48:14;;;;;;;0.10;0.10;;;13.50;99.90;;;;;;5004129;28;20216;-82
2022/07/17 05:50:39;;;;;;;0.10;0.10;;;13.50;99.90;;;;;;4992993;28;20213;-82
2022/07/17 05:53:05;;;;;;;0.10;0.10;;;13.60;99.90;;;;;;5001394;28;20189;-82
2022/07/17 05:55:31;;;;;;;0.10;0.10;;;13.80;99.90;;;;;;4995867;28;20189;-80
2022/07/17 05:57:56;;;;;;;0.10;0.10;;;13.80;99.90;;;;;;5015335;28;20307;-81
2022/07/17 06:00:22;;;;;;;0.10;0.10;;;13.80;99.90;;;;;;5017580;28;20233;-81
2022/07/17 06:02:47;;;;;;;0.10;0.10;;;13.90;99.90;;;;;;5021216;28;20279;-81
2022/07/17 06:05:13;;;;;;;0.10;0.10;;;14.10;99.90;;;;;;5025919;28;20287;-82
2022/07/17 06:07:39;;;;;;;0.10;0.10;;;14.20;99.90;;;;;;5026081;28;20713;-81
2022/07/17 06:10:05;;;;;;;0.10;0.10;;;14.10;99.90;;;;;;5012216;28;20271;-81
2022/07/17 06:12:31;;;;;;;0.10;0.10;;;14.30;99.90;;;;;;5029807;28;20207;-81
2022/07/17 06:14:56;;;;;;;0.10;0.10;;;14.40;99.90;;;;;;5026249;28;20466;-81
2022/07/17 06:17:22;;;;;;;0.10;0.10;;;14.50;99.90;;;;;;5006007;28;20179;-81
2022/07/17 06:19:51;;;;;;;0.10;0.10;;;14.60;99.90;;;;;;5020007;28;20267;-81
2022/07/17 06:22:18;;;;;;;0.10;0.10;;;14.70;99.90;;;;;;5016742;28;20191;-81
2022/07/17 06:24:43;;;;;;;0.10;0.10;;;14.80;99.90;;;;;;5020373;28;20466;-80
2022/07/17 06:27:09;;;;;;;0.10;0.10;;;14.90;99.90;;;;;;5016736;28;20485;-80
2022/07/17 06:29:34;;;;;;;0.10;0.10;;;15.00;99.90;;;;;;5020991;28;20223;-80
2022/07/17 06:32:00;;;;;;;0.10;0.10;;;15.10;99.90;;;;;;5022120;28;20195;-80
2022/07/17 06:34:26;;;;;;;0.10;0.10;;;15.30;99.90;;;;;;5020956;28;20453;-80
2022/07/17 06:36:51;;;;;;;0.10;0.10;;;15.20;99.90;;;;;;5025104;28;20234;-81
2022/07/17 06:39:17;;;;;;;0.10;0.10;;;15.30;99.90;;;;;;5024276;28;20223;-81
2022/07/17 06:41:42;;;;;;;0.10;0.10;;;15.40;99.90;;;;;;5004503;28;20215;-81
2022/07/17 06:44:08;;;;;;;0.10;0.10;;;15.60;99.90;;;;;;5020540;28;20199;-82
2022/07/17 06:46:33;;;;;;;0.10;0.10;;;15.40;99.90;;;;;;5003016;28;20313;-81
2022/07/17 06:48:59;;;;;;;0.10;0.10;;;15.50;99.90;;;;;;5026422;28;20267;-81
2022/07/17 06:51:24;;;;;;;0.13;0.13;;;15.40;99.90;;;;;;5025454;28;20191;-81
2022/07/17 06:53:50;;;;;;;0.10;0.10;;;15.60;99.90;;;;;;5024138;28;20270;-81
2022/07/17 06:56:15;;;;;;;0.10;0.10;;;15.50;99.90;;;;;;5028300;28;20196;-81
2022/07/17 06:58:41;;;;;;;0.10;0.10;;;15.80;99.90;;;;;;5018114;28;20232;-80
2022/07/17 07:01:06;;;;;;;0.10;0.10;;;16.00;99.90;;;;;;4999471;28;20192;-81
2022/07/17 07:03:32;;;;;;;0.10;0.10;;;16.00;99.90;;;;;;5003758;28;20275;-82
2022/07/17 07:05:58;;;;;;;0.10;0.10;;;16.10;99.90;;;;;;4994467;28;20267;-83
2022/07/17 07:08:24;;;;;;;0.10;0.10;;;16.20;99.90;;;;;;5005355;28;20279;-82
2022/07/17 07:10:49;;;;;;;0.10;0.10;;;16.30;99.90;;;;;;4982305;28;20577;-80
2022/07/17 07:13:15;;;;;;;0.10;0.10;;;16.40;99.90;;;;;;4999458;28;20185;-81
2022/07/17 07:15:40;;;;;;;0.10;0.10;;;16.40;99.90;;;;;;5008717;28;20200;-80
2022/07/17 07:18:06;;;;;;;0.10;0.10;;;16.30;99.90;;;;;;4990327;28;20561;-80
2022/07/17 07:20:31;;;;;;;0.10;0.10;;;16.20;99.90;;;;;;5003159;28;20230;-80
2022/07/17 07:22:57;;;;;;;0.10;0.10;;;16.00;99.90;;;;;;4993001;28;20193;-80
2022/07/17 07:25:22;;;;;;;0.10;0.10;;;15.90;99.90;;;;;;5001192;28;20203;-81
2022/07/17 07:27:48;;;;;;;0.10;0.10;;;16.00;99.90;;;;;;4986682;28;20180;-80
2022/07/17 07:30:14;;;;;;;0.10;0.10;;;16.30;99.90;;;;;;5010383;28;20224;-81
2022/07/17 07:32:39;;;;;;;0.10;0.10;;;16.30;99.90;;;;;;5002354;28;20243;-80
2022/07/17 07:35:06;;;;;;;0.10;0.10;;;16.80;99.90;;;;;;4990506;28;20223;-81
2022/07/17 07:37:32;;;;;;;0.10;0.10;;;17.20;99.90;;;;;;4998027;28;20220;-80
2022/07/17 07:40:01;;;;;;;0.10;0.10;;;17.10;99.90;;;;;;4987450;28;20456;-80
2022/07/17 07:42:27;;;;;;;0.10;0.10;;;17.10;99.90;;;;;;4991484;28;20447;-80
2022/07/17 07:44:53;;;;;;;0.10;0.10;;;17.10;99.90;;;;;;5003092;28;20478;-80
2022/07/17 07:47:18;;;;;;;0.10;0.10;;;17.00;99.90;;;;;;4982556;28;20725;-81
2022/07/17 07:49:44;;;;;;;0.10;0.10;;;17.00;99.90;;;;;;4997267;28;20240;-79
2022/07/17 07:52:09;;;;;;;0.10;0.10;;;17.20;99.90;;;;;;4991385;28;20193;-80
2022/07/17 07:54:35;;;;;;;0.10;0.10;;;17.50;99.90;;;;;;4991203;28;20657;-79
2022/07/17 07:57:01;;;;;;;0.10;0.10;;;17.20;99.90;;;;;;4991764;28;20310;-82
2022/07/17 07:59:28;;;;;;;0.10;0.10;;;17.10;99.90;;;;;;5030398;28;20517;-80
2022/07/17 08:01:54;;;;;;;0.10;0.10;;;16.80;99.90;;;;;;5022833;28;20783;-80
2022/07/17 08:04:19;;;;;;;0.10;0.10;;;16.70;99.90;;;;;;5034104;28;20425;-81
2022/07/17 08:06:45;;;;;;;0.10;0.10;;;17.20;99.90;;;;;;5014223;28;20282;-80
2022/07/17 08:09:10;;;;;;;0.10;0.10;;;17.70;99.90;;;;;;5015869;28;20290;-80
2022/07/17 08:11:36;;;;;;;0.10;0.10;;;18.10;99.90;;;;;;5030661;28;20282;-80
2022/07/17 08:14:01;;;;;;;0.10;0.10;;;18.10;99.90;;;;;;5017569;28;20270;-80
2022/07/17 08:16:27;;;;;;;0.10;0.10;;;18.00;99.90;;;;;;5022791;28;20199;-80
2022/07/17 08:18:52;;;;;;;0.10;0.10;;;17.90;99.90;;;;;;5032516;28;20203;-79
2022/07/17 08:21:18;;;;;;;0.10;0.10;;;18.10;99.90;;;;;;5030778;28;20229;-80
2022/07/17 08:23:43;;;;;;;0.10;0.10;;;18.60;99.90;;;;;;5027968;28;20208;-79
2022/07/17 08:26:09;;;;;;;0.10;0.10;;;18.50;99.90;;;;;;5030303;28;20211;-81
2022/07/17 08:28:34;;;;;;;0.10;0.10;;;18.30;99.90;;;;;;5026683;28;20192;-80
2022/07/17 08:31:00;;;;;;;0.10;0.10;;;18.00;99.90;;;;;;5026663;28;20215;-80
2022/07/17 08:33:25;;;;;;;0.10;0.10;;;17.80;99.90;;;;;;5030010;28;20188;-80
2022/07/17 08:35:51;;;;;;;0.10;0.10;;;18.20;99.90;;;;;;5027346;28;20238;-80
2022/07/17 08:38:17;;;;;;;0.10;0.00;;;18.40;99.90;;;;;;4997664;28;20451;-81
2022/07/17 08:40:43;;;;;;;0.10;0.10;;;18.40;99.90;;;;;;5004630;28;20215;-80
2022/07/17 08:43:09;;;;;;;0.10;0.10;;;18.70;99.90;;;;;;5024803;28;20918;-81
2022/07/17 08:45:35;;;;;;;0.10;0.10;;;18.90;99.90;;;;;;5033262;28;20438;-80
2022/07/17 08:48:01;;;;;;;0.10;0.00;;;19.10;99.90;;;;;;5026109;28;20456;-79
2022/07/17 08:50:32;;;;;;;0.10;0.10;;;19.00;99.90;;;;;;5022426;28;20493;-80
2022/07/17 08:52:59;;;;;;;0.10;0.10;;;19.60;99.90;;;;;;5024229;28;20457;-81
2022/07/17 08:55:25;;;;;;;0.10;0.10;;;19.90;99.90;;;;;;5025317;28;20465;-80
2022/07/17 08:57:50;;;;;;;0.10;0.00;;;19.80;99.90;;;;;;5027052;28;20520;-80
2022/07/17 09:00:18;;;;;;;0.10;0.00;;;19.50;99.90;;;;;;5017785;28;20486;-80
2022/07/17 09:02:54;;;;;;;0.10;0.00;;;19.70;99.90;;;;;;5020957;28;20333;-80
2022/07/17 09:05:22;;;;;;;0.10;0.00;;;19.80;99.90;;;;;;5029181;28;20499;-80
2022/07/17 09:07:48;;;;;;;0.10;0.00;;;20.00;99.90;;;;;;5021425;28;20478;-80
2022/07/17 09:10:14;;;;;;;0.10;0.10;;;20.20;99.90;;;;;;5019604;28;20578;-80
2022/07/17 09:12:40;;;;;;;0.10;0.00;;;20.40;99.90;;;;;;4995095;28;20547;-80
2022/07/17 09:15:17;;;;;;;0.10;0.10;;;20.20;99.90;;;;;;5027468;28;20460;-80
2022/07/17 09:17:50;;;;;;;0.10;0.10;;;20.70;99.90;;;;;;5029871;28;20246;-80
2022/07/17 09:20:16;;;;;;;0.10;0.00;;;20.70;99.90;;;;;;5000697;28;20458;-80
2022/07/17 09:22:42;;;;;;;0.10;0.00;;;20.60;99.90;;;;;;5026542;28;20450;-79
2022/07/17 09:25:08;;;;;;;0.10;0.00;;;20.60;99.90;;;;;;5022721;28;20453;-81
2022/07/17 09:27:33;;;;;;;0.10;0.00;;;20.90;99.90;;;;;;5021389;28;20735;-80
2022/07/17 09:30:06;;;;;;;0.10;0.00;;;21.00;99.90;;;;;;5013132;28;20211;-80
2022/07/17 09:32:38;;;;;;;0.10;0.00;;;21.50;99.90;;;;;;5024831;28;20263;-80
2022/07/17 09:35:07;;;;;;;0.10;0.00;;;21.00;99.90;;;;;;5028921;28;20508;-80
2022/07/17 09:37:34;;;;;;;0.10;0.00;;;21.10;99.90;;;;;;5004042;28;20473;-79
2022/07/17 09:40:01;;;;;;;0.10;0.00;;;21.30;99.90;;;;;;5011792;28;20437;-80
2022/07/17 09:42:31;;;;;;;0.10;0.00;;;21.60;99.90;;;;;;5027751;28;20808;-79
2022/07/17 09:44:58;;;;;;;0.10;0.00;;;22.10;99.90;;;;;;5029216;28;20792;-80
2022/07/17 09:47:24;;;;;;;0.10;0.00;;;22.30;99.90;;;;;;5008623;28;20549;-80
2022/07/17 09:49:55;;;;;;;0.10;0.00;;;22.10;99.90;;;;;;5000139;28;20475;-79
2022/07/17 09:52:31;;;;;;;0.10;0.00;;;22.00;99.90;;;;;;5012035;28;20450;-80
2022/07/17 09:54:59;;;;;;;0.10;0.00;;;21.60;99.90;;;;;;5007564;28;20533;-80
2022/07/17 09:57:27;;;;;;;0.10;0.00;;;20.80;99.90;;;;;;5014463;28;20605;-80
2022/07/17 09:59:54;;;;;;;0.10;0.00;;;21.10;99.90;;;;;;4990233;28;20491;-79
2022/07/17 10:02:21;;;;;;;0.10;0.00;;;21.40;99.90;;;;;;5005911;28;20924;-81
2022/07/17 10:04:48;;;;;;;0.10;0.00;;;21.80;99.90;;;;;;5010848;28;20447;-79
2022/07/17 10:07:14;;;;;;;0.10;0.00;;;21.60;99.90;;;;;;5012051;28;20450;-80
2022/07/17 10:09:39;;;;;;;0.10;0.00;;;21.60;99.90;;;;;;5014497;28;20494;-81
2022/07/17 10:12:06;;;;;;;0.10;0.00;;;22.10;99.90;;;;;;4993809;28;20858;-79
2022/07/17 10:14:33;;;;;;;0.10;0.00;;;22.30;99.90;;;;;;5002728;28;20192;-79
2022/07/17 10:17:19;;;;;;;0.10;0.00;;;22.40;99.90;;;;;;4992428;28;20450;-80
2022/07/17 10:19:48;;;;;;;0.10;0.00;;;23.10;99.90;;;;;;5003778;28;20458;-80
2022/07/17 10:22:14;;;;;;;0.10;0.00;;;23.30;99.90;;;;;;5009982;28;20449;-79
2022/07/17 10:24:49;;;;;;;0.10;0.00;;;22.90;99.90;;;;;;4993891;28;20450;-83
2022/07/17 10:27:28;;;;;;;0.10;0.00;;;23.30;99.90;;;;;;5012300;28;20224;-83
2022/07/17 10:30:04;;;;;;;0.10;0.00;;;23.10;99.90;;;;;;4984518;28;20483;-84
2022/07/17 10:32:30;;;;;;;0.10;0.00;;;23.80;99.90;;;;;;5008568;28;20477;-85
2022/07/17 10:35:05;;;;;;;0.10;0.00;;;24.00;99.90;;;;;;5008369;28;20529;-83
2022/07/17 10:37:37;;;;;;;0.10;0.00;;;23.60;99.90;;;;;;5009584;28;20433;-84
2022/07/17 10:40:04;;;;;;;0.10;0.00;;;23.90;99.90;;;;;;4991820;28;20908;-82
2022/07/17 10:42:42;;;;;;;0.10;0.00;;;24.60;99.90;;;;;;4999648;28;20439;-83
2022/07/17 10:45:23;;;;;;;0.10;0.00;;;25.20;99.90;;;;;;5004895;28;20828;-82
2022/07/17 10:47:51;;;;;;;0.10;0.00;;;24.30;99.90;;;;;;4995418;28;21300;-82
2022/07/17 10:50:20;;;;;;;0.10;0.00;;;24.10;99.90;;;;;;5010381;28;20483;-83
2022/07/17 10:53:00;;;;;;;0.10;0.00;;;24.50;99.90;;;;;;5006387;28;20543;-83
2022/07/17 10:55:26;;;;;;;0.10;0.00;;;24.30;99.90;;;;;;5002530;28;20994;-82
2022/07/17 10:57:52;;;;;;;0.10;0.00;;;24.20;99.90;;;;;;5009147;28;20561;-82
2022/07/17 11:00:18;;;;;;;0.10;0.00;;;25.00;99.90;;;;;;4987498;28;20652;-82
2022/07/17 11:02:44;;;;;;;0.10;0.00;;;25.20;99.90;;;;;;4994276;28;20526;-81
2022/07/17 11:05:11;;;;;;;0.10;0.00;;;25.90;99.90;;;;;;5004986;28;20192;-83
2022/07/17 11:07:49;;;;;;;0.10;0.00;;;25.70;99.90;;;;;;5007894;28;20188;-82
2022/07/17 11:10:14;;;;;;;0.10;0.00;;;26.60;99.90;;;;;;4996303;28;20498;-83
2022/07/17 11:12:40;;;;;;;0.10;0.00;;;26.10;99.90;;;;;;4991995;28;20449;-82
2022/07/17 11:15:06;;;;;;;0.10;0.00;;;25.00;99.90;;;;;;5004673;28;20181;-84
2022/07/17 11:17:32;;;;;;;0.10;0.00;;;24.10;99.90;;;;;;5000860;28;20291;-83
2022/07/17 11:20:02;;;;;;;0.10;0.00;;;23.70;99.90;;;;;;5007960;28;21053;-83
2022/07/17 11:22:28;;;;;;;0.10;0.00;;;24.20;99.90;;;;;;5010226;28;20176;-82
2022/07/17 11:24:54;;;;;;;0.10;0.00;;;24.80;99.90;;;;;;4991249;28;20981;-83
2022/07/17 11:27:23;;;;;;;0.10;0.00;;;25.40;99.90;;;;;;5008702;28;20188;-84
2022/07/17 11:29:51;;;;;;;0.10;0.00;;;25.40;99.90;;;;;;5003960;28;20335;-83
2022/07/17 11:32:17;;;;;;;0.10;0.00;;;25.00;99.90;;;;;;4987619;28;20443;-84
2022/07/17 11:34:43;;;;;;;0.10;0.00;;;25.80;99.90;;;;;;5007430;28;20548;-84
2022/07/17 11:37:10;;;;;;;0.10;0.00;;;25.70;99.90;;;;;;4995867;28;20855;-84
2022/07/17 11:39:41;;;;;;;0.10;0.00;;;25.70;99.90;;;;;;4994557;28;21069;-84
2022/07/17 11:42:13;;;;;;;0.10;0.00;;;25.70;99.90;;;;;;4995627;28;20439;-84
2022/07/17 11:44:39;;;;;;;0.10;0.00;;;26.30;99.90;;;;;;4999517;28;20448;-85
2022/07/17 11:47:06;;;;;;;0.10;0.00;;;26.00;99.90;;;;;;5004301;28;20455;-83
2022/07/17 11:49:37;;;;;;;0.10;0.00;;;26.70;99.90;;;;;;5002618;28;20507;-84
2022/07/17 11:52:13;;;;;;;0.10;0.00;;;27.20;99.90;;;;;;4997096;28;20524;-85
2022/07/17 11:54:50;;;;;;;0.10;0.00;;;26.40;99.90;;;;;;5006794;28;20442;-83
2022/07/17 11:57:17;;;;;;;0.10;0.00;;;26.40;99.90;;;;;;5009900;28;20482;-82
2022/07/17 11:59:43;;;;;;;0.10;0.00;;;27.40;99.90;;;;;;5012055;28;20439;-83
2022/07/17 12:02:11;;;;;;;0.10;0.00;;;27.60;99.90;;;;;;4999143;28;20448;-82
2022/07/17 12:04:50;;;;;;;0.10;0.00;;;27.60;99.90;;;;;;5005328;28;20443;-82
2022/07/17 12:07:16;;;;;;;0.10;0.00;;;27.90;99.90;;;;;;4996204;28;20535;-82
2022/07/17 12:09:42;;;;;;;0.10;0.00;;;27.80;99.90;;;;;;5000480;28;20479;-80
2022/07/17 12:12:27;;;;;;;0.10;0.00;;;27.80;99.90;;;;;;5007162;28;20950;-79
2022/07/17 12:15:00;;;;;;;0.10;0.00;;;27.60;99.90;;;;;;4986032;28;20192;-80
2022/07/17 12:17:39;;;;;;;0.10;0.00;;;27.70;99.90;;;;;;5011427;28;20446;-82
2022/07/17 12:20:06;;;;;;;0.10;0.00;;;28.40;99.90;;;;;;5022047;28;20457;-81
2022/07/17 12:22:46;;;;;;;0.10;0.00;;;27.80;99.90;;;;;;5017104;28;20449;-79
2022/07/17 12:25:25;;;;;;;0.10;0.00;;;27.70;99.90;;;;;;4990708;28;20635;-80
2022/07/17 12:27:51;;;;;;;0.10;0.00;;;28.70;99.90;;;;;;4986930;28;20535;-80
2022/07/17 12:30:17;;;;;;;0.10;0.00;;;27.90;99.90;;;;;;4987614;28;20479;-83
2022/07/17 12:32:43;;;;;;;0.10;0.00;;;27.20;99.90;;;;;;5008862;28;20265;-84
2022/07/17 12:35:09;;;;;;;0.10;0.00;;;27.40;99.90;;;;;;4999948;28;20486;-79
2022/07/17 12:37:34;;;;;;;0.10;0.00;;;27.20;99.90;;;;;;5010274;28;20684;-79
2022/07/17 12:40:00;;;;;;;0.10;0.00;;;27.70;99.90;;;;;;4999609;28;20564;-79
2022/07/17 12:42:26;;;;;;;0.10;0.00;;;28.00;99.90;;;;;;5001921;28;20199;-81
2022/07/17 12:44:51;;;;;;;0.10;0.00;;;28.00;99.90;;;;;;4997513;28;20276;-81
2022/07/17 12:47:18;;;;;;;0.10;0.00;;;27.80;99.90;;;;;;5004481;28;20266;-81